createdAt,value
2023-01-02T00:02:22.130Z,1.58
2023-01-02T00:04:48.726Z,1.83
2023-01-02T00:07:15.266Z,1.70
2023-01-02T00:09:41.824Z,1.70
2023-01-02T00:12:08.398Z,2.05
2023-01-02T00:14:34.967Z,1.50
2023-01-02T00:17:01.543Z,1.83
2023-01-02T00:19:28.104Z,1.77
2023-01-02T00:21:56.076Z,2.10
2023-01-02T00:24:22.617Z,1.85
2023-01-02T00:26:49.115Z,1.73
2023-01-02T00:29:15.597Z,2.22
2023-01-02T00:31:42.131Z,1.75
2023-01-02T00:34:08.666Z,2.00
2023-01-02T00:36:35.159Z,2.20
2023-01-02T00:39:01.669Z,2.25
2023-01-02T00:41:28.249Z,1.95
2023-01-02T00:43:54.756Z,2.15
2023-01-02T00:46:21.566Z,1.83
2023-01-02T00:48:48.108Z,2.25
2023-01-02T00:51:14.694Z,2.33
2023-01-02T00:53:41.345Z,1.77
2023-01-02T00:56:08.103Z,1.60
2023-01-02T00:58:34.956Z,1.70
2023-01-02T01:01:01.912Z,1.80
2023-01-02T01:03:28.678Z,1.80
2023-01-02T01:05:55.225Z,2.22
2023-01-02T01:08:21.875Z,1.92
2023-01-02T01:10:48.694Z,2.20
2023-01-02T01:13:15.487Z,1.95
2023-01-02T01:15:42.023Z,1.80
2023-01-02T01:18:08.562Z,1.70
2023-01-02T01:20:38.094Z,2.00
2023-01-02T01:23:04.738Z,1.70
2023-01-02T01:25:31.403Z,1.67
2023-01-02T01:27:57.963Z,1.85
2023-01-02T01:30:24.520Z,1.90
2023-01-02T01:32:51.071Z,1.77
2023-01-02T01:35:17.670Z,1.75
2023-01-02T01:37:44.154Z,2.15
2023-01-02T01:40:10.929Z,1.75
2023-01-02T01:42:37.505Z,1.70
2023-01-02T01:45:11.665Z,1.77
2023-01-02T01:47:49.674Z,2.00
2023-01-02T01:50:30.128Z,1.48
2023-01-02T01:53:04.080Z,1.92
2023-01-02T01:55:38.364Z,1.98
2023-01-02T01:58:08.459Z,1.70
2023-01-02T02:00:35.828Z,1.50
2023-01-02T02:03:10.453Z,2.15
2023-01-02T02:05:37.815Z,1.70
2023-01-02T02:08:18.642Z,1.60
2023-01-02T02:10:46.366Z,1.58
2023-01-02T02:13:13.813Z,1.48
2023-01-02T02:15:49.063Z,1.92
2023-01-02T02:18:39.359Z,2.00
2023-01-02T02:21:36.401Z,1.95
2023-01-02T02:24:48.314Z,1.73
2023-01-02T02:27:33.550Z,2.05
2023-01-02T02:30:08.915Z,1.30
2023-01-02T02:32:59.312Z,1.85
2023-01-02T02:35:56.097Z,2.70
2023-01-02T02:38:54.582Z,2.10
2023-01-02T02:41:23.771Z,1.90
2023-01-02T02:44:10.737Z,2.33
2023-01-02T02:46:44.303Z,2.10
2023-01-02T02:49:41.384Z,1.83
2023-01-02T02:52:21.578Z,2.03
2023-01-02T02:54:55.541Z,2.03
2023-01-02T02:57:23.533Z,1.98
2023-01-02T02:59:50.116Z,2.40
2023-01-02T03:02:17.750Z,2.75
2023-01-02T03:04:47.645Z,2.33
2023-01-02T03:07:23.573Z,2.72
2023-01-02T03:10:01.807Z,1.95
2023-01-02T03:12:47.943Z,2.30
2023-01-02T03:15:17.504Z,2.15
2023-01-02T03:18:11.819Z,2.60
2023-01-02T03:20:44.028Z,2.35
2023-01-02T03:23:18.478Z,1.92
2023-01-02T03:25:45.822Z,1.92
2023-01-02T03:28:15.381Z,2.13
2023-01-02T03:30:43.184Z,3.35
2023-01-02T03:33:24.909Z,2.10
2023-01-02T03:35:56.556Z,2.15
2023-01-02T03:38:28.048Z,2.40
2023-01-02T03:41:20.682Z,2.08
2023-01-02T03:43:56.537Z,2.13
2023-01-02T03:46:34.661Z,2.88
2023-01-02T03:49:18.619Z,2.17
2023-01-02T03:51:45.424Z,2.60
2023-01-02T03:54:12.190Z,2.22
2023-01-02T03:56:57.469Z,2.58
2023-01-02T03:59:36.376Z,2.30
2023-01-02T04:02:11.882Z,2.40
2023-01-02T04:04:46.840Z,1.50
2023-01-02T04:07:24.826Z,1.88
2023-01-02T04:09:52.781Z,1.40
2023-01-02T04:12:22.186Z,1.58
2023-01-02T04:14:52.420Z,2.03
2023-01-02T04:17:22.056Z,2.53
2023-01-02T04:19:56.404Z,2.00
2023-01-02T04:22:29.978Z,2.40
2023-01-02T04:25:16.007Z,1.95
2023-01-02T04:27:59.071Z,1.63
2023-01-02T04:30:29.166Z,2.45
2023-01-02T04:33:00.123Z,1.88
2023-01-02T04:35:34.925Z,2.00
2023-01-02T04:38:11.535Z,1.63
2023-01-02T04:40:38.323Z,1.90
2023-01-02T04:43:08.543Z,1.75
2023-01-02T04:45:35.201Z,2.15
2023-01-02T04:48:01.685Z,1.90
2023-01-02T04:50:28.206Z,1.15
2023-01-02T04:52:54.724Z,1.58
2023-01-02T04:55:21.250Z,2.08
2023-01-02T04:57:47.840Z,1.52
2023-01-02T05:00:14.766Z,1.73
2023-01-02T05:02:41.410Z,1.63
2023-01-02T05:05:09.038Z,1.90
2023-01-02T05:07:38.567Z,2.15
2023-01-02T05:10:06.291Z,1.27
2023-01-02T05:12:37.260Z,1.50
2023-01-02T05:15:05.252Z,1.40
2023-01-02T05:17:49.734Z,1.27
2023-01-02T05:20:16.440Z,1.77
2023-01-02T05:22:43.955Z,1.73
2023-01-02T05:25:10.540Z,1.30
2023-01-02T05:27:37.009Z,1.40
2023-01-02T05:30:04.714Z,1.38
2023-01-02T05:32:31.251Z,1.42
2023-01-02T05:34:57.732Z,2.00
2023-01-02T05:37:24.312Z,1.27
2023-01-02T05:39:50.913Z,1.52
2023-01-02T05:42:17.471Z,1.70
2023-01-02T05:44:43.985Z,2.05
2023-01-02T05:47:14.875Z,1.65
2023-01-02T05:49:42.867Z,1.85
2023-01-02T05:52:09.543Z,1.77
2023-01-02T05:54:36.122Z,1.05
2023-01-02T05:57:02.663Z,1.52
2023-01-02T05:59:29.159Z,1.55
2023-01-02T06:01:55.740Z,1.67
2023-01-02T06:04:22.280Z,1.17
2023-01-02T06:06:48.797Z,1.38
2023-01-02T06:09:16.692Z,1.63
2023-01-02T06:11:43.769Z,1.42
2023-01-02T06:14:10.630Z,1.88
2023-01-02T06:16:38.347Z,1.45
2023-01-02T06:19:05.779Z,1.90
2023-01-02T06:21:32.648Z,1.63
2023-01-02T06:23:59.522Z,1.90
2023-01-02T06:26:32.766Z,1.42
2023-01-02T06:29:01.687Z,1.60
2023-01-02T06:31:28.763Z,1.40
2023-01-02T06:34:00.222Z,0.90
2023-01-02T06:36:30.365Z,1.27
2023-01-02T06:38:57.859Z,1.20
2023-01-02T06:41:24.488Z,1.13
2023-01-02T06:43:52.070Z,1.17
2023-01-02T06:46:20.965Z,1.25
2023-01-02T06:48:48.362Z,1.70
2023-01-02T06:51:17.651Z,1.27
2023-01-02T06:53:45.521Z,1.38
2023-01-02T06:56:13.473Z,1.27
2023-01-02T06:58:40.147Z,1.70
2023-01-02T07:01:12.488Z,1.50
2023-01-02T07:03:39.239Z,1.63
2023-01-02T07:06:12.132Z,1.90
2023-01-02T07:08:39.245Z,1.73
2023-01-02T07:11:26.062Z,1.33
2023-01-02T07:13:54.267Z,2.22
2023-01-02T07:16:22.275Z,1.70
2023-01-02T07:18:51.808Z,2.10
2023-01-02T07:21:18.355Z,1.55
2023-01-02T07:23:45.044Z,1.33
2023-01-02T07:26:12.001Z,1.65
2023-01-02T07:28:39.031Z,1.85
2023-01-02T07:31:11.917Z,2.05
2023-01-02T07:33:38.863Z,1.88
2023-01-02T07:36:07.985Z,1.73
2023-01-02T07:38:34.922Z,2.05
2023-01-02T07:41:01.744Z,1.10
2023-01-02T07:43:28.231Z,1.40
2023-01-02T07:45:55.086Z,1.83
2023-01-02T07:48:21.596Z,1.00
2023-01-02T07:50:48.111Z,1.60
2023-01-02T07:53:14.685Z,1.67
2023-01-02T07:55:41.228Z,1.45
2023-01-02T07:58:07.857Z,1.73
2023-01-02T08:00:34.466Z,1.58
2023-01-02T08:03:01.335Z,1.50
2023-01-02T08:05:27.905Z,1.67
2023-01-02T08:07:54.473Z,1.65
2023-01-02T08:10:21.168Z,1.65
2023-01-02T08:12:47.712Z,1.48
2023-01-02T08:15:14.277Z,1.50
2023-01-02T08:17:40.782Z,1.55
2023-01-02T08:20:08.494Z,1.05
2023-01-02T08:22:35.276Z,1.65
2023-01-02T08:25:02.064Z,2.40
2023-01-02T08:27:28.576Z,1.27
2023-01-02T08:29:55.111Z,1.75
2023-01-02T08:32:21.711Z,1.30
2023-01-02T08:34:48.244Z,1.50
2023-01-02T08:37:14.894Z,1.50
2023-01-02T08:39:41.372Z,1.40
2023-01-02T08:42:07.908Z,1.25
2023-01-02T08:44:37.426Z,1.80
2023-01-02T08:47:04.962Z,1.25
2023-01-02T08:49:31.759Z,1.48
2023-01-02T08:51:59.507Z,1.20
2023-01-02T08:54:26.258Z,1.40
2023-01-02T08:56:52.779Z,1.23
2023-01-02T08:59:19.584Z,1.23
2023-01-02T09:01:46.339Z,1.02
2023-01-02T09:04:13.613Z,1.10
2023-01-02T09:06:41.947Z,1.20
2023-01-02T09:09:11.962Z,1.08
2023-01-02T09:11:43.014Z,1.45
2023-01-02T09:14:09.541Z,1.13
2023-01-02T09:16:36.022Z,1.00
2023-01-02T09:19:02.626Z,1.10
2023-01-02T09:21:29.596Z,1.63
2023-01-02T09:23:56.333Z,1.55
2023-01-02T09:26:22.937Z,1.58
2023-01-02T09:28:49.612Z,1.70
2023-01-02T09:31:18.398Z,1.83
2023-01-02T09:33:46.592Z,2.70
2023-01-02T09:36:16.699Z,1.95
2023-01-02T09:38:43.288Z,2.10
2023-01-02T09:41:27.339Z,2.42
2023-01-02T09:44:08.491Z,1.98
2023-01-02T09:46:48.604Z,2.25
2023-01-02T09:49:20.649Z,1.95
2023-01-02T09:51:47.743Z,2.03
2023-01-02T09:54:25.804Z,1.90
2023-01-02T09:57:16.268Z,2.25
2023-01-02T09:59:48.793Z,2.15
2023-01-02T10:02:47.291Z,2.50
2023-01-02T10:05:35.267Z,2.40
2023-01-02T10:08:11.409Z,2.33
2023-01-02T10:10:41.386Z,2.22
2023-01-02T10:13:10.605Z,2.50
2023-01-02T10:15:38.284Z,2.10
2023-01-02T10:18:41.593Z,2.15
2023-01-02T10:21:24.753Z,3.10
2023-01-02T10:23:57.177Z,2.78
2023-01-02T10:26:30.876Z,2.55
2023-01-02T10:29:20.755Z,2.20
2023-01-02T10:31:58.771Z,2.25
2023-01-02T10:34:25.479Z,2.80
2023-01-02T10:36:52.459Z,2.22
2023-01-02T10:39:21.789Z,2.78
2023-01-02T10:41:52.672Z,2.45
2023-01-02T10:44:27.025Z,2.10
2023-01-02T10:46:55.026Z,2.15
2023-01-02T10:49:23.541Z,1.90
2023-01-02T10:51:58.014Z,2.60
2023-01-02T10:54:24.611Z,2.40
2023-01-02T10:56:51.262Z,2.10
2023-01-02T10:59:24.073Z,1.52
2023-01-02T11:01:56.342Z,1.48
2023-01-02T11:04:26.208Z,1.13
2023-01-02T11:06:58.552Z,1.58
2023-01-02T11:09:33.635Z,1.25
2023-01-02T11:12:13.357Z,1.58
2023-01-02T11:14:40.285Z,1.58
2023-01-02T11:17:18.511Z,1.50
2023-01-02T11:19:48.561Z,1.75
2023-01-02T11:22:18.401Z,1.30
2023-01-02T11:25:00.506Z,1.58
2023-01-02T11:27:37.631Z,1.60
2023-01-02T11:30:07.677Z,1.10
2023-01-02T11:32:39.794Z,0.90
2023-01-02T11:35:32.911Z,1.35
2023-01-02T11:38:01.736Z,1.00
2023-01-02T11:40:31.368Z,1.27
2023-01-02T11:43:05.362Z,1.25
2023-01-02T11:45:33.843Z,1.20
2023-01-02T11:48:06.341Z,1.10
2023-01-02T11:50:37.702Z,1.58
2023-01-02T11:53:14.154Z,1.17
2023-01-02T11:56:09.424Z,1.38
2023-01-02T11:59:00.147Z,1.25
2023-01-02T12:01:39.231Z,1.30
2023-01-02T12:04:06.319Z,1.20
2023-01-02T12:06:59.832Z,1.40
2023-01-02T12:12:32.197Z,1.30
2023-01-02T12:15:07.895Z,1.45
2023-01-02T12:18:05.517Z,1.60
2023-01-02T12:20:55.785Z,1.27
2023-01-02T12:23:59.801Z,1.45
2023-01-02T12:26:50.242Z,2.00
2023-01-02T12:29:46.656Z,1.40
2023-01-02T12:32:33.888Z,1.55
2023-01-02T12:35:11.862Z,1.70
2023-01-02T12:37:58.734Z,1.60
2023-01-02T12:40:51.964Z,1.48
2023-01-02T12:43:18.402Z,1.52
2023-01-02T12:45:51.001Z,1.90
2023-01-02T12:48:27.434Z,1.67
2023-01-02T12:51:06.809Z,1.42
2023-01-02T12:54:19.195Z,1.90
2023-01-02T12:57:07.995Z,1.92
2023-01-02T12:59:44.084Z,1.60
2023-01-02T13:02:40.372Z,1.85
2023-01-02T13:05:35.782Z,1.80
2023-01-02T13:08:13.545Z,1.83
2023-01-02T13:10:40.966Z,1.60
2023-01-02T13:13:11.288Z,1.67
2023-01-02T13:15:42.298Z,1.40
2023-01-02T13:18:30.175Z,1.58
2023-01-02T13:21:12.367Z,1.10
2023-01-02T13:23:42.836Z,1.80
2023-01-02T13:26:17.997Z,1.95
2023-01-02T13:29:07.643Z,1.77
2023-01-02T13:31:47.417Z,1.67
2023-01-02T13:34:29.533Z,1.45
2023-01-02T13:37:13.155Z,2.05
2023-01-02T13:39:39.615Z,2.20
2023-01-02T13:42:09.965Z,1.65
2023-01-02T13:44:38.991Z,1.83
2023-01-02T13:47:25.554Z,2.00
2023-01-02T13:50:19.201Z,1.90
2023-01-02T13:53:04.668Z,1.60
2023-01-02T13:55:40.123Z,1.80
2023-01-02T13:58:12.598Z,2.00
2023-01-02T14:00:41.702Z,1.45
2023-01-02T14:03:35.478Z,1.67
2023-01-02T14:06:22.059Z,1.60
2023-01-02T14:09:09.504Z,2.00
2023-01-02T14:11:55.495Z,1.80
2023-01-02T14:14:38.472Z,1.65
2023-01-02T14:17:27.872Z,1.70
2023-01-02T14:20:30.105Z,1.58
2023-01-02T14:23:03.994Z,1.30
2023-01-02T14:25:43.685Z,1.25
2023-01-02T14:28:14.692Z,1.50
2023-01-02T14:30:42.442Z,1.30
2023-01-02T14:33:15.628Z,1.27
2023-01-02T14:35:54.188Z,1.05
2023-01-02T14:38:24.544Z,1.25
2023-01-02T14:40:52.030Z,0.93
2023-01-02T14:43:35.216Z,1.23
2023-01-02T14:46:07.650Z,1.30
2023-01-02T14:49:00.001Z,1.40
2023-01-02T14:51:29.627Z,1.50
2023-01-02T14:54:02.500Z,1.33
2023-01-02T14:56:36.563Z,1.80
2023-01-02T14:59:05.650Z,1.30
2023-01-02T15:01:43.442Z,1.73
2023-01-02T15:04:27.779Z,1.65
2023-01-02T15:07:11.467Z,1.67
2023-01-02T15:09:43.466Z,1.63
2023-01-02T15:12:24.779Z,1.67
2023-01-02T15:14:52.500Z,1.63
2023-01-02T15:17:21.913Z,1.10
2023-01-02T15:19:49.146Z,1.52
2023-01-02T15:22:22.543Z,1.33
2023-01-02T15:24:51.405Z,1.60
2023-01-02T15:27:24.095Z,1.55
2023-01-02T15:29:54.389Z,1.60
2023-01-02T15:32:24.661Z,2.00
2023-01-02T15:34:51.646Z,2.22
2023-01-02T15:37:22.628Z,1.67
2023-01-02T15:39:53.347Z,1.80
2023-01-02T15:42:24.407Z,1.88
2023-01-02T15:44:51.138Z,2.00
2023-01-02T15:47:25.469Z,8.77
2023-01-02T15:49:54.706Z,5.22
2023-01-02T15:52:25.816Z,1.63
2023-01-02T15:54:53.091Z,5.03
2023-01-02T15:57:27.353Z,8.85
2023-01-02T15:59:54.496Z,6.30
2023-01-02T16:02:47.498Z,2.28
2023-01-02T16:05:19.042Z,5.28
2023-01-02T16:07:54.041Z,2.28
2023-01-02T16:10:23.637Z,5.07
2023-01-02T16:13:13.166Z,1.90
2023-01-02T16:15:39.714Z,3.28
2023-01-02T16:18:06.334Z,3.08
2023-01-02T16:20:32.901Z,8.55
2023-01-02T16:23:05.809Z,8.43
2023-01-02T16:25:35.182Z,4.07
2023-01-02T16:28:36.092Z,7.00
2023-01-02T16:31:15.142Z,2.70
2023-01-02T16:33:43.419Z,7.25
2023-01-02T16:36:20.534Z,7.15
2023-01-02T16:38:49.743Z,1.70
2023-01-02T16:41:28.479Z,1.38
2023-01-02T16:43:54.966Z,1.60
2023-01-02T16:46:21.499Z,2.42
2023-01-02T16:48:48.040Z,1.65
2023-01-02T16:51:14.899Z,2.55
2023-01-02T16:53:43.254Z,4.22
2023-01-02T16:56:11.731Z,2.13
2023-01-02T16:58:38.502Z,2.00
2023-01-02T17:01:05.310Z,1.83
2023-01-02T17:03:31.910Z,1.52
2023-01-02T17:06:03.781Z,1.00
2023-01-02T17:08:31.714Z,1.25
2023-01-02T17:10:59.021Z,0.70
2023-01-02T17:13:26.463Z,1.60
2023-01-02T17:15:53.561Z,0.88
2023-01-02T17:18:20.598Z,1.50
2023-01-02T17:20:47.583Z,0.70
2023-01-02T17:23:14.106Z,0.95
2023-01-02T17:25:42.667Z,0.90
2023-01-02T17:28:09.583Z,1.25
2023-01-02T17:30:36.381Z,1.02
2023-01-02T17:33:04.415Z,0.73
2023-01-02T17:35:32.789Z,1.42
2023-01-02T17:37:59.317Z,1.25
2023-01-02T17:40:25.985Z,1.23
2023-01-02T17:42:52.877Z,1.25
2023-01-02T17:45:19.767Z,1.55
2023-01-02T17:48:01.281Z,1.42
2023-01-02T17:50:29.055Z,1.33
2023-01-02T17:52:55.603Z,1.42
2023-01-02T17:55:22.178Z,1.85
2023-01-02T17:57:48.679Z,2.00
2023-01-02T18:00:15.671Z,1.60
2023-01-02T18:02:42.394Z,1.38
2023-01-02T18:05:09.700Z,1.70
2023-01-02T18:07:36.246Z,1.40
2023-01-02T18:10:07.692Z,2.00
2023-01-02T18:12:37.961Z,1.80
2023-01-02T18:15:15.395Z,2.25
2023-01-02T18:17:42.278Z,2.63
2023-01-02T18:20:18.586Z,2.92
2023-01-02T18:22:49.466Z,3.10
2023-01-02T18:25:24.939Z,2.60
2023-01-02T18:27:55.874Z,2.85
2023-01-02T18:30:24.415Z,3.55
2023-01-02T18:33:00.396Z,3.38
2023-01-02T18:38:37.738Z,3.03
2023-01-02T18:41:25.949Z,3.50
2023-01-02T18:44:00.940Z,3.35
2023-01-02T18:47:01.781Z,3.70
2023-01-02T18:49:29.980Z,3.25
2023-01-02T18:52:11.718Z,3.67
2023-01-02T18:54:44.503Z,3.35
2023-01-02T18:57:16.185Z,3.63
2023-01-02T18:59:45.511Z,3.80
2023-01-02T19:02:48.650Z,4.20
2023-01-02T19:05:51.475Z,4.25
2023-01-02T19:08:19.450Z,3.40
2023-01-02T19:10:48.767Z,3.63
2023-01-02T19:13:24.509Z,3.38
2023-01-02T19:15:56.231Z,3.50
2023-01-02T19:18:27.231Z,3.70
2023-01-02T19:20:58.670Z,3.78
2023-01-02T19:23:42.526Z,3.28
2023-01-02T19:26:24.575Z,5.00
2023-01-02T19:29:18.768Z,4.20
2023-01-02T19:32:08.489Z,4.80
2023-01-02T19:34:44.669Z,3.08
2023-01-02T19:37:11.228Z,2.60
2023-01-02T19:39:42.183Z,3.08
2023-01-02T19:42:09.553Z,2.70
2023-01-02T19:44:36.089Z,2.83
2023-01-02T19:47:02.696Z,2.78
2023-01-02T19:49:29.255Z,2.40
2023-01-02T19:51:55.763Z,2.10
2023-01-02T19:54:22.286Z,2.00
2023-01-02T19:56:48.792Z,2.40
2023-01-02T19:59:15.342Z,2.35
2023-01-02T20:01:42.043Z,2.50
2023-01-02T20:04:08.657Z,1.50
2023-01-02T20:06:35.139Z,2.33
2023-01-02T20:09:01.794Z,2.20
2023-01-02T20:11:28.357Z,1.70
2023-01-02T20:13:54.895Z,2.25
2023-01-02T20:16:21.676Z,2.13
2023-01-02T20:18:48.379Z,1.83
2023-01-02T20:21:20.969Z,2.45
2023-01-02T20:23:56.155Z,2.13
2023-01-02T20:26:23.207Z,1.40
2023-01-02T20:28:49.772Z,1.88
2023-01-02T20:31:16.317Z,1.88
2023-01-02T20:33:43.034Z,1.90
2023-01-02T20:36:13.789Z,1.58
2023-01-02T20:38:43.378Z,1.67
2023-01-02T20:41:09.912Z,2.00
2023-01-02T20:43:36.537Z,1.90
2023-01-02T20:46:03.230Z,1.25
2023-01-02T20:48:29.917Z,1.95
2023-01-02T20:50:56.516Z,1.60
2023-01-02T20:53:23.162Z,1.38
2023-01-02T20:55:49.832Z,1.30
2023-01-02T20:58:16.453Z,1.80
2023-01-02T21:00:42.996Z,1.52
2023-01-02T21:03:09.722Z,1.70
2023-01-02T21:05:36.458Z,1.52
2023-01-02T21:08:03.122Z,1.42
2023-01-02T21:10:29.634Z,1.80
2023-01-02T21:12:57.135Z,1.65
2023-01-02T21:15:23.626Z,1.73
2023-01-02T21:17:50.239Z,1.45
2023-01-02T21:20:16.765Z,1.80
2023-01-02T21:22:43.340Z,1.52
2023-01-02T21:25:09.897Z,1.50
2023-01-02T21:27:36.475Z,1.85
2023-01-02T21:30:03.165Z,1.80
2023-01-02T21:32:29.652Z,2.08
2023-01-02T21:34:56.134Z,2.38
2023-01-02T21:37:22.746Z,2.00
2023-01-02T21:39:49.252Z,2.05
2023-01-02T21:42:15.866Z,2.15
2023-01-02T21:44:43.731Z,2.35
2023-01-02T21:47:10.224Z,1.92
2023-01-02T21:49:36.806Z,1.80
2023-01-02T21:52:03.479Z,2.10
2023-01-02T21:54:30.010Z,1.90
2023-01-02T21:56:56.929Z,1.88
2023-01-02T21:59:24.179Z,1.88
2023-01-02T22:01:52.938Z,2.05
2023-01-02T22:04:20.251Z,1.92
2023-01-02T22:07:29.638Z,2.00
2023-01-02T22:09:33.931Z,2.50
2023-01-02T22:12:00.643Z,1.90
2023-01-02T22:14:37.990Z,1.70
2023-01-02T22:17:09.903Z,1.92
2023-01-02T22:19:37.201Z,2.10
2023-01-02T22:22:04.222Z,2.53
2023-01-02T22:24:31.447Z,2.05
2023-01-02T22:27:02.809Z,2.13
2023-01-02T22:30:00.426Z,2.20
2023-01-02T22:34:44.390Z,2.25
2023-01-02T22:37:16.945Z,2.50
2023-01-02T22:39:46.774Z,2.33
2023-01-02T22:42:58.432Z,2.45
2023-01-02T22:45:17.316Z,2.38
2023-01-02T22:47:45.155Z,2.30
2023-01-02T22:50:19.753Z,2.17
2023-01-02T22:52:46.567Z,2.22
2023-01-02T22:55:18.509Z,2.55
2023-01-02T22:57:51.142Z,2.33
2023-01-02T23:00:20.779Z,2.17
2023-01-02T23:02:47.358Z,1.67
2023-01-02T23:05:19.704Z,3.15
2023-01-02T23:07:47.229Z,2.67
2023-01-02T23:10:14.161Z,2.70
2023-01-02T23:12:40.834Z,2.72
2023-01-02T23:15:10.988Z,3.00
2023-01-02T23:17:37.546Z,2.72
2023-01-02T23:20:04.489Z,2.67
2023-01-02T23:22:31.012Z,2.83
2023-01-02T23:24:57.500Z,2.58
2023-01-02T23:27:24.108Z,2.47
2023-01-02T23:29:50.586Z,2.45
2023-01-02T23:32:17.166Z,2.47
2023-01-02T23:34:43.739Z,2.17
2023-01-02T23:37:13.390Z,2.88
2023-01-02T23:39:39.996Z,2.55
2023-01-02T23:42:07.244Z,2.72
2023-01-02T23:44:33.764Z,2.72
2023-01-02T23:47:05.515Z,2.78
2023-01-02T23:49:35.575Z,2.90
2023-01-02T23:52:02.238Z,2.75
2023-01-02T23:54:28.882Z,2.47
2023-01-02T23:56:55.499Z,2.85
2023-01-02T23:59:24.017Z,3.33
